createdAt,value
2019-03-31T00:01:24.126Z,32.20
2019-03-31T00:03:53.760Z,35.50
2019-03-31T00:06:23.221Z,33.53
2019-03-31T00:08:53.171Z,36.40
2019-03-31T00:11:22.949Z,32.70
2019-03-31T00:13:52.727Z,32.30
2019-03-31T00:16:22.612Z,34.87
2019-03-31T00:18:53.335Z,32.30
2019-03-31T00:21:22.701Z,35.87
2019-03-31T00:23:52.134Z,31.80
2019-03-31T00:26:22.047Z,34.87
2019-03-31T00:28:51.591Z,37.03
2019-03-31T00:31:22.650Z,38.50
2019-03-31T00:33:52.627Z,36.80
2019-03-31T00:36:22.676Z,32.27
2019-03-31T00:38:52.447Z,35.13
2019-03-31T00:41:22.769Z,39.10
2019-03-31T00:43:52.401Z,37.10
2019-03-31T00:46:22.179Z,34.63
2019-03-31T00:48:51.915Z,34.60
2019-03-31T00:51:21.618Z,34.93
2019-03-31T00:53:51.238Z,35.70
2019-03-31T00:56:20.921Z,41.63
2019-03-31T00:58:50.721Z,36.03
2019-03-31T01:01:39.991Z,44.47
2019-03-31T01:04:09.731Z,34.37
2019-03-31T01:06:39.602Z,43.20
2019-03-31T01:09:20.012Z,46.90
2019-03-31T01:11:50.208Z,47.40
2019-03-31T01:14:20.302Z,46.17
2019-03-31T01:16:49.951Z,44.57
2019-03-31T01:19:19.833Z,50.77
2019-03-31T01:21:49.157Z,42.33
2019-03-31T01:24:18.932Z,47.30
2019-03-31T01:26:48.413Z,47.63
2019-03-31T01:29:18.176Z,49.00
2019-03-31T01:31:50.534Z,46.20
2019-03-31T01:34:19.210Z,40.37
2019-03-31T01:36:48.535Z,41.70
2019-03-31T01:39:17.928Z,46.47
2019-03-31T01:41:47.335Z,43.30
2019-03-31T01:44:16.622Z,45.23
2019-03-31T01:46:46.000Z,45.40
2019-03-31T01:49:15.228Z,49.07
2019-03-31T01:51:44.854Z,47.30
2019-03-31T01:54:14.418Z,50.03
2019-03-31T01:56:44.937Z,49.90
2019-03-31T01:59:14.371Z,52.80
2019-03-31T02:01:44.290Z,52.97
2019-03-31T02:04:13.767Z,49.97
2019-03-31T02:06:42.916Z,43.73
2019-03-31T02:09:12.564Z,56.27
2019-03-31T02:11:41.860Z,56.03
2019-03-31T02:14:11.246Z,54.90
2019-03-31T02:16:40.568Z,58.67
2019-03-31T02:19:09.758Z,48.50
2019-03-31T02:21:39.052Z,50.43
2019-03-31T02:24:08.385Z,49.37
2019-03-31T02:26:37.648Z,62.47
2019-03-31T02:29:07.879Z,60.57
2019-03-31T02:31:37.107Z,55.00
2019-03-31T02:34:06.481Z,59.07
2019-03-31T02:36:35.700Z,62.30
2019-03-31T02:39:06.017Z,77.97
2019-03-31T02:41:35.905Z,63.30
2019-03-31T02:44:05.229Z,79.30
2019-03-31T02:46:34.479Z,77.00
2019-03-31T02:49:03.909Z,71.70
2019-03-31T02:51:33.403Z,79.40
2019-03-31T02:54:02.726Z,82.67
2019-03-31T02:56:32.702Z,71.50
2019-03-31T02:59:02.643Z,86.47
2019-03-31T03:01:33.315Z,72.43
2019-03-31T03:04:03.010Z,78.50
2019-03-31T03:06:32.578Z,89.40
2019-03-31T03:09:02.293Z,97.20
2019-03-31T03:11:32.176Z,93.60
2019-03-31T03:14:02.916Z,94.23
2019-03-31T03:16:32.639Z,91.20
2019-03-31T03:19:02.382Z,91.17
2019-03-31T03:21:31.753Z,88.13
2019-03-31T03:24:01.063Z,96.43
2019-03-31T03:26:30.336Z,91.33
2019-03-31T03:29:00.091Z,99.20
2019-03-31T03:31:29.466Z,102.23
2019-03-31T03:33:58.788Z,98.93
2019-03-31T03:36:28.066Z,111.70
2019-03-31T03:38:57.794Z,108.43
2019-03-31T03:41:27.168Z,108.00
2019-03-31T03:44:01.967Z,103.10
2019-03-31T03:46:27.505Z,113.33
2019-03-31T03:48:56.883Z,116.47
2019-03-31T03:51:26.111Z,110.73
2019-03-31T03:53:55.345Z,119.00
2019-03-31T03:56:28.860Z,121.17
2019-03-31T03:58:55.777Z,106.37
2019-03-31T04:01:27.591Z,121.67
2019-03-31T04:03:57.330Z,114.83
2019-03-31T04:06:26.609Z,111.83
2019-03-31T04:08:55.934Z,105.27
2019-03-31T04:11:28.853Z,109.90
2019-03-31T04:13:58.417Z,108.80
2019-03-31T04:16:27.807Z,111.20
2019-03-31T04:18:57.427Z,108.50
2019-03-31T04:21:27.106Z,118.27
2019-03-31T04:23:57.336Z,115.03
2019-03-31T04:26:26.631Z,104.80
2019-03-31T04:28:55.932Z,125.80
2019-03-31T04:31:25.364Z,126.07
2019-03-31T04:33:54.727Z,115.93
2019-03-31T04:36:24.238Z,143.50
2019-03-31T04:38:53.972Z,120.33
2019-03-31T04:41:23.263Z,131.40
2019-03-31T04:43:53.055Z,131.10
2019-03-31T04:46:22.458Z,127.57
2019-03-31T04:48:51.768Z,126.73
2019-03-31T04:51:21.087Z,127.07
2019-03-31T04:53:50.791Z,136.17
2019-03-31T04:56:20.375Z,129.37
2019-03-31T04:58:50.276Z,133.60
2019-03-31T05:01:19.600Z,131.70
2019-03-31T05:04:03.423Z,135.20
2019-03-31T05:06:20.052Z,144.80
2019-03-31T05:08:49.417Z,140.13
2019-03-31T05:11:19.258Z,141.57
2019-03-31T05:13:48.439Z,124.13
2019-03-31T05:16:17.644Z,127.07
2019-03-31T05:18:47.027Z,141.17
2019-03-31T05:21:17.166Z,133.23
2019-03-31T05:23:46.760Z,127.90
2019-03-31T05:26:16.373Z,129.17
2019-03-31T05:28:46.238Z,114.13
2019-03-31T05:31:15.666Z,126.63
2019-03-31T05:33:44.980Z,131.90
2019-03-31T05:36:14.602Z,130.13
2019-03-31T05:38:44.187Z,133.00
2019-03-31T05:41:13.801Z,119.07
2019-03-31T05:43:43.091Z,121.83
2019-03-31T05:46:12.411Z,115.10
2019-03-31T05:48:41.777Z,121.87
2019-03-31T05:51:11.419Z,119.73
2019-03-31T05:53:40.812Z,113.63
2019-03-31T05:56:10.117Z,110.13
2019-03-31T05:58:39.335Z,105.30
2019-03-31T06:01:08.637Z,107.80
2019-03-31T06:03:37.989Z,106.63
2019-03-31T06:06:07.380Z,107.10
2019-03-31T06:08:36.789Z,96.53
2019-03-31T06:11:06.119Z,108.40
2019-03-31T06:13:35.823Z,106.23
2019-03-31T06:16:05.221Z,115.60
2019-03-31T06:18:34.602Z,102.77
2019-03-31T06:21:04.005Z,104.33
2019-03-31T06:23:33.346Z,97.43
2019-03-31T06:26:02.728Z,93.70
2019-03-31T06:28:32.434Z,93.63
2019-03-31T06:31:01.734Z,106.50
2019-03-31T06:33:31.211Z,95.20
2019-03-31T06:36:00.446Z,102.37
2019-03-31T06:38:29.969Z,95.93
2019-03-31T06:40:59.331Z,95.37
2019-03-31T06:43:28.997Z,98.90
2019-03-31T06:45:58.334Z,98.40
2019-03-31T06:48:28.131Z,102.27
2019-03-31T06:50:58.257Z,105.10
2019-03-31T06:53:27.599Z,103.23
2019-03-31T06:55:56.944Z,103.27
2019-03-31T06:58:26.245Z,99.47
2019-03-31T07:00:55.560Z,107.07
2019-03-31T07:03:24.837Z,99.80
2019-03-31T07:05:54.551Z,89.23
2019-03-31T07:08:24.290Z,91.47
2019-03-31T07:10:53.887Z,85.57
2019-03-31T07:13:23.184Z,90.03
2019-03-31T07:15:52.462Z,85.07
2019-03-31T07:18:21.711Z,87.93
2019-03-31T07:20:51.068Z,86.33
2019-03-31T07:23:20.377Z,81.10
2019-03-31T07:25:50.170Z,71.37
2019-03-31T07:28:19.573Z,68.70
2019-03-31T07:30:49.277Z,64.73
2019-03-31T07:33:18.911Z,65.80
2019-03-31T07:35:48.802Z,58.80
2019-03-31T07:38:18.641Z,60.13
2019-03-31T07:40:48.346Z,54.77
2019-03-31T07:43:17.573Z,61.93
2019-03-31T07:45:47.222Z,64.97
2019-03-31T07:48:16.732Z,66.93
2019-03-31T07:50:46.689Z,64.60
2019-03-31T07:53:16.142Z,61.50
2019-03-31T07:55:45.737Z,59.63
2019-03-31T07:58:15.073Z,65.13
2019-03-31T08:00:44.646Z,64.93
2019-03-31T08:03:14.160Z,64.83
2019-03-31T08:05:43.965Z,63.33
2019-03-31T08:08:13.815Z,61.93
2019-03-31T08:10:43.252Z,59.30
2019-03-31T08:13:12.606Z,62.90
2019-03-31T08:15:42.915Z,64.93
2019-03-31T08:18:12.757Z,67.03
2019-03-31T08:20:42.037Z,62.80
2019-03-31T08:23:12.140Z,68.67
2019-03-31T08:25:41.434Z,75.17
2019-03-31T08:28:11.072Z,66.47
2019-03-31T08:30:40.721Z,67.30
2019-03-31T08:33:10.079Z,70.70
2019-03-31T08:35:47.221Z,60.80
2019-03-31T08:38:11.225Z,70.63
2019-03-31T08:40:40.607Z,90.10
2019-03-31T08:43:09.923Z,84.23
2019-03-31T08:45:39.896Z,85.00
2019-03-31T08:48:09.627Z,95.27
2019-03-31T08:50:38.924Z,94.80
2019-03-31T08:53:08.663Z,98.57
2019-03-31T08:55:37.965Z,99.20
2019-03-31T08:58:08.014Z,94.83
2019-03-31T09:00:41.954Z,99.63
2019-03-31T09:03:11.439Z,90.07
2019-03-31T09:05:41.051Z,89.83
2019-03-31T09:08:10.705Z,95.23
2019-03-31T09:10:40.050Z,89.00
2019-03-31T09:13:09.394Z,93.07
2019-03-31T09:15:39.386Z,90.03
2019-03-31T09:18:09.206Z,80.43
2019-03-31T09:20:38.497Z,92.70
2019-03-31T09:23:08.311Z,88.30
2019-03-31T09:25:38.007Z,85.30
2019-03-31T09:28:07.262Z,78.90
2019-03-31T09:30:37.233Z,72.80
2019-03-31T09:33:06.962Z,78.40
2019-03-31T09:35:36.643Z,73.60
2019-03-31T09:38:06.491Z,91.60
2019-03-31T09:40:36.443Z,77.40
2019-03-31T09:43:06.620Z,74.73
2019-03-31T09:45:37.206Z,70.53
2019-03-31T09:48:07.136Z,71.70
2019-03-31T09:50:36.644Z,76.57
2019-03-31T09:53:06.761Z,69.97
2019-03-31T09:55:36.346Z,81.87
2019-03-31T09:58:05.991Z,68.33
2019-03-31T10:00:48.584Z,70.87
2019-03-31T10:03:18.765Z,68.43
2019-03-31T10:05:48.537Z,70.30
2019-03-31T10:08:21.590Z,69.93
2019-03-31T10:10:49.471Z,61.97
2019-03-31T10:13:18.669Z,60.97
2019-03-31T10:15:48.365Z,64.37
2019-03-31T10:18:18.221Z,54.17
2019-03-31T10:20:47.701Z,64.43
2019-03-31T10:23:17.688Z,57.20
2019-03-31T10:25:47.379Z,52.27
2019-03-31T10:28:17.024Z,52.57
2019-03-31T10:30:46.756Z,46.83
2019-03-31T10:33:16.121Z,45.00
2019-03-31T10:35:45.443Z,55.10
2019-03-31T10:38:14.861Z,43.60
2019-03-31T10:40:44.954Z,40.97
2019-03-31T10:43:14.667Z,43.90
2019-03-31T10:45:43.965Z,42.83
2019-03-31T10:48:20.387Z,43.87
2019-03-31T10:50:44.417Z,43.70
2019-03-31T10:53:14.005Z,39.23
2019-03-31T10:55:43.334Z,39.30
2019-03-31T10:58:13.132Z,45.40
2019-03-31T11:00:44.497Z,45.97
2019-03-31T11:03:13.732Z,42.00
2019-03-31T11:05:43.073Z,37.57
2019-03-31T11:08:12.855Z,42.23
2019-03-31T11:10:42.187Z,37.83
2019-03-31T11:13:12.249Z,41.57
2019-03-31T11:15:41.507Z,39.47
2019-03-31T11:18:10.868Z,44.03
2019-03-31T11:20:40.297Z,44.40
2019-03-31T11:23:20.447Z,38.27
2019-03-31T11:25:49.953Z,31.77
2019-03-31T11:28:19.329Z,31.37
2019-03-31T11:30:48.731Z,33.53
2019-03-31T11:33:18.541Z,27.00
2019-03-31T11:35:48.154Z,36.13
2019-03-31T11:38:18.299Z,28.83
2019-03-31T11:40:47.997Z,36.23
2019-03-31T11:43:17.405Z,30.00
2019-03-31T11:45:46.836Z,39.10
2019-03-31T11:48:16.178Z,30.93
2019-03-31T11:50:45.476Z,34.87
2019-03-31T11:53:15.009Z,31.87
2019-03-31T11:55:44.605Z,28.70
2019-03-31T11:58:13.986Z,31.90
2019-03-31T12:01:02.249Z,31.00
2019-03-31T12:03:32.611Z,32.73
2019-03-31T12:06:02.689Z,33.97
2019-03-31T12:08:32.169Z,30.03
2019-03-31T12:11:02.304Z,31.10
2019-03-31T12:13:32.032Z,29.87
2019-03-31T12:16:01.338Z,27.37
2019-03-31T12:18:30.617Z,31.57
2019-03-31T12:21:00.230Z,43.40
2019-03-31T12:23:30.067Z,33.77
2019-03-31T12:25:59.522Z,30.50
2019-03-31T12:28:29.305Z,29.27
2019-03-31T12:30:58.655Z,27.17
2019-03-31T12:33:28.028Z,26.63
2019-03-31T12:35:57.635Z,34.90
2019-03-31T12:38:26.835Z,28.20
2019-03-31T12:40:56.479Z,30.20
2019-03-31T12:43:25.885Z,24.40
2019-03-31T12:45:55.745Z,26.60
2019-03-31T12:48:25.050Z,28.53
2019-03-31T12:50:54.370Z,30.60
2019-03-31T12:53:23.752Z,23.87
2019-03-31T12:55:59.925Z,29.70
2019-03-31T12:58:25.425Z,26.63
2019-03-31T13:00:54.740Z,25.53
2019-03-31T13:03:24.124Z,23.10
2019-03-31T13:05:53.859Z,34.97
2019-03-31T13:08:23.138Z,48.37
2019-03-31T13:10:52.594Z,43.77
2019-03-31T13:13:21.863Z,47.90
2019-03-31T13:15:51.336Z,45.33
2019-03-31T13:18:20.733Z,37.13
2019-03-31T13:20:50.523Z,49.93
2019-03-31T13:23:20.114Z,41.00
2019-03-31T13:25:49.460Z,26.43
2019-03-31T13:28:18.769Z,24.13
2019-03-31T13:30:48.151Z,20.80
2019-03-31T13:33:17.552Z,26.33
2019-03-31T13:35:46.760Z,26.57
2019-03-31T13:38:16.148Z,27.67
2019-03-31T13:40:45.445Z,26.27
2019-03-31T13:43:15.461Z,39.23
2019-03-31T13:45:44.863Z,24.00
2019-03-31T13:48:14.190Z,30.07
2019-03-31T13:50:43.812Z,38.33
2019-03-31T13:53:16.116Z,34.53
2019-03-31T13:55:44.143Z,29.87
2019-03-31T13:58:14.074Z,34.97
2019-03-31T14:00:45.049Z,32.17
2019-03-31T14:03:14.482Z,36.43
2019-03-31T14:05:43.768Z,25.50
2019-03-31T14:08:24.954Z,25.70
2019-03-31T14:10:44.101Z,23.33
2019-03-31T14:13:13.518Z,36.33
2019-03-31T14:15:43.008Z,17.27
2019-03-31T14:18:12.536Z,19.20
2019-03-31T14:20:41.801Z,17.20
2019-03-31T14:23:11.313Z,17.43
2019-03-31T14:25:40.645Z,15.13
2019-03-31T14:28:10.037Z,19.20
2019-03-31T14:30:39.404Z,22.27
2019-03-31T14:33:09.252Z,15.77
2019-03-31T14:35:38.926Z,16.90
2019-03-31T14:38:08.667Z,15.20
2019-03-31T14:40:37.953Z,15.60
2019-03-31T14:43:07.336Z,16.97
2019-03-31T14:45:36.940Z,16.83
2019-03-31T14:48:08.390Z,15.80
2019-03-31T14:50:38.415Z,21.47
2019-03-31T14:53:08.070Z,15.90
2019-03-31T14:55:37.549Z,17.03
2019-03-31T14:58:08.187Z,19.70
2019-03-31T15:00:37.868Z,17.07
2019-03-31T15:03:07.391Z,16.80
2019-03-31T15:05:36.789Z,18.43
2019-03-31T15:08:06.097Z,16.00
2019-03-31T15:10:35.463Z,18.50
2019-03-31T15:13:05.399Z,24.13
2019-03-31T15:15:34.907Z,19.90
2019-03-31T15:18:04.411Z,18.57
2019-03-31T15:20:33.687Z,20.40
2019-03-31T15:23:03.007Z,16.40
2019-03-31T15:25:32.501Z,16.20
2019-03-31T15:28:01.783Z,13.30
2019-03-31T15:30:31.388Z,11.67
2019-03-31T15:33:00.697Z,17.13
2019-03-31T15:35:30.181Z,15.83
2019-03-31T15:37:59.598Z,13.73
2019-03-31T15:40:29.300Z,13.63
2019-03-31T15:42:58.721Z,11.10
2019-03-31T15:45:28.465Z,12.67
2019-03-31T15:47:57.853Z,13.60
2019-03-31T15:50:27.243Z,9.70
2019-03-31T15:52:56.608Z,11.30
2019-03-31T15:55:26.108Z,13.57
2019-03-31T15:57:55.416Z,16.43
2019-03-31T16:00:24.952Z,12.00
2019-03-31T16:02:54.252Z,14.20
2019-03-31T16:05:23.561Z,12.50
2019-03-31T16:07:52.914Z,9.47
2019-03-31T16:10:22.327Z,10.37
2019-03-31T16:12:51.649Z,10.50
2019-03-31T16:15:21.145Z,14.10
2019-03-31T16:17:50.559Z,12.30
2019-03-31T16:20:20.053Z,10.80
2019-03-31T16:22:49.117Z,15.50
2019-03-31T16:25:26.325Z,8.70
2019-03-31T16:27:55.397Z,10.30
2019-03-31T16:30:24.902Z,12.87
2019-03-31T16:32:54.331Z,10.53
2019-03-31T16:35:23.713Z,10.33
2019-03-31T16:37:52.803Z,25.07
2019-03-31T16:40:21.739Z,16.97
2019-03-31T16:42:51.091Z,8.27
2019-03-31T16:45:20.196Z,8.67
2019-03-31T16:47:49.990Z,8.40
2019-03-31T16:50:19.287Z,7.80
2019-03-31T16:52:52.388Z,12.27
2019-03-31T16:55:19.831Z,7.77
2019-03-31T16:57:49.869Z,7.10
2019-03-31T17:00:19.040Z,13.57
2019-03-31T17:02:48.247Z,11.67
2019-03-31T17:05:22.067Z,14.07
2019-03-31T17:07:48.469Z,7.53
2019-03-31T17:10:17.706Z,11.20
2019-03-31T17:12:46.867Z,12.90
2019-03-31T17:15:16.409Z,14.20
2019-03-31T17:17:46.685Z,11.60
2019-03-31T17:20:15.821Z,13.73
2019-03-31T17:22:44.915Z,13.10
2019-03-31T17:25:13.980Z,15.53
2019-03-31T17:27:43.485Z,8.03
2019-03-31T17:30:13.087Z,9.00
2019-03-31T17:32:42.488Z,7.73
2019-03-31T17:35:11.513Z,10.87
2019-03-31T17:37:41.016Z,9.80
2019-03-31T17:40:10.316Z,14.37
2019-03-31T17:42:39.377Z,11.23
2019-03-31T17:45:08.757Z,10.20
2019-03-31T17:47:38.178Z,13.10
2019-03-31T17:50:07.997Z,9.90
2019-03-31T17:52:37.524Z,11.93
2019-03-31T17:55:06.858Z,11.20
2019-03-31T17:57:36.181Z,10.27
2019-03-31T18:00:06.228Z,13.93
2019-03-31T18:02:35.406Z,10.17
2019-03-31T18:05:05.218Z,9.50
2019-03-31T18:07:34.304Z,10.40
2019-03-31T18:10:03.438Z,8.87
2019-03-31T18:12:32.505Z,9.50
2019-03-31T18:15:02.339Z,16.87
2019-03-31T18:17:31.711Z,9.57
2019-03-31T18:20:01.323Z,12.30
2019-03-31T18:22:30.617Z,12.33
2019-03-31T18:25:00.363Z,14.17
2019-03-31T18:27:29.549Z,13.37
2019-03-31T18:29:58.747Z,11.63
2019-03-31T18:32:28.558Z,13.77
2019-03-31T18:34:57.638Z,15.20
2019-03-31T18:37:26.822Z,21.80
2019-03-31T18:39:56.248Z,20.50
2019-03-31T18:42:25.220Z,28.30
2019-03-31T18:44:54.436Z,27.17
2019-03-31T18:47:24.432Z,28.20
2019-03-31T18:49:53.519Z,28.97
2019-03-31T18:52:22.718Z,27.97
2019-03-31T18:55:17.037Z,30.23
2019-03-31T18:58:05.139Z,24.13
2019-03-31T19:00:53.229Z,18.00
2019-03-31T19:03:50.669Z,12.20
2019-03-31T19:06:48.401Z,10.20
2019-03-31T19:09:39.932Z,16.37
2019-03-31T19:12:40.275Z,11.63
2019-03-31T19:15:27.694Z,11.57
2019-03-31T19:18:20.214Z,15.70
2019-03-31T19:21:17.475Z,15.50
2019-03-31T19:24:01.747Z,18.33
2019-03-31T19:26:51.780Z,18.40
2019-03-31T19:29:38.918Z,14.63
2019-03-31T19:32:25.625Z,18.90
2019-03-31T19:35:25.692Z,18.43
2019-03-31T19:38:14.099Z,16.73
2019-03-31T19:41:15.062Z,12.33
2019-03-31T19:44:01.692Z,12.53
2019-03-31T19:46:48.686Z,28.87
2019-03-31T19:49:39.933Z,17.27
2019-03-31T19:52:18.100Z,15.20
2019-03-31T19:54:59.456Z,13.37
2019-03-31T19:57:57.114Z,14.20
2019-03-31T20:01:03.616Z,13.87
2019-03-31T20:03:46.630Z,19.50
2019-03-31T20:06:43.707Z,19.50
2019-03-31T20:09:37.676Z,17.70
2019-03-31T20:12:21.263Z,11.60
2019-03-31T20:15:15.606Z,13.17
2019-03-31T20:18:15.980Z,14.43
2019-03-31T20:21:10.468Z,10.10
2019-03-31T20:23:45.538Z,15.07
2019-03-31T20:26:38.964Z,14.53
2019-03-31T20:29:26.068Z,17.30
2019-03-31T20:32:07.157Z,10.50
2019-03-31T20:34:58.195Z,14.73
2019-03-31T20:37:55.487Z,17.73
2019-03-31T20:40:46.423Z,14.47
2019-03-31T20:43:46.853Z,17.10
2019-03-31T20:46:16.250Z,18.03
2019-03-31T20:48:45.367Z,14.63
2019-03-31T20:51:14.518Z,16.60
2019-03-31T20:53:44.047Z,11.60
2019-03-31T20:56:13.142Z,16.63
2019-03-31T20:58:42.234Z,13.90
2019-03-31T21:01:11.395Z,26.27
2019-03-31T21:03:40.829Z,12.13
2019-03-31T21:06:10.546Z,11.07
2019-03-31T21:08:39.637Z,22.73
2019-03-31T21:11:08.750Z,14.63
2019-03-31T21:13:37.927Z,14.20
2019-03-31T21:16:07.360Z,14.63
2019-03-31T21:18:36.426Z,15.70
2019-03-31T21:21:05.548Z,15.50
2019-03-31T21:23:34.895Z,10.80
2019-03-31T21:26:03.936Z,13.57
2019-03-31T21:28:33.421Z,14.50
2019-03-31T21:31:02.521Z,14.50
2019-03-31T21:33:31.638Z,10.87
2019-03-31T21:36:01.025Z,14.10
2019-03-31T21:38:30.130Z,12.73
2019-03-31T21:40:59.600Z,13.10
2019-03-31T21:43:28.957Z,16.30
2019-03-31T21:45:58.020Z,9.53
2019-03-31T21:48:27.217Z,17.17
2019-03-31T21:50:56.289Z,10.03
2019-03-31T21:53:25.783Z,9.87
2019-03-31T21:55:55.496Z,9.33
2019-03-31T21:58:24.620Z,12.60
2019-03-31T22:00:57.982Z,15.70
2019-03-31T22:03:26.992Z,16.63
2019-03-31T22:05:56.679Z,8.57
2019-03-31T22:08:26.083Z,13.70
2019-03-31T22:10:55.513Z,12.10
2019-03-31T22:13:24.799Z,16.90
2019-03-31T22:15:53.905Z,13.53
2019-03-31T22:18:23.021Z,13.57
2019-03-31T22:20:52.511Z,12.20
2019-03-31T22:23:21.954Z,18.77
2019-03-31T22:25:51.178Z,11.20
2019-03-31T22:28:20.292Z,18.10
2019-03-31T22:30:49.662Z,10.90
2019-03-31T22:33:20.174Z,9.63
2019-03-31T22:36:06.920Z,15.57
2019-03-31T22:38:36.018Z,10.63
2019-03-31T22:41:05.195Z,9.37
2019-03-31T22:43:34.310Z,9.27
2019-03-31T22:46:03.482Z,13.93
2019-03-31T22:48:32.884Z,15.40
2019-03-31T22:51:01.982Z,11.63
2019-03-31T22:53:31.114Z,10.63
2019-03-31T22:56:00.396Z,10.80
2019-03-31T22:58:29.803Z,15.87
2019-03-31T23:00:59.296Z,8.90
2019-03-31T23:03:28.676Z,14.80
2019-03-31T23:05:57.774Z,19.53
2019-03-31T23:08:27.839Z,17.10
2019-03-31T23:10:56.883Z,23.53
2019-03-31T23:13:26.004Z,21.60
2019-03-31T23:15:55.064Z,19.20
2019-03-31T23:18:24.402Z,14.63
2019-03-31T23:20:53.571Z,9.70
2019-03-31T23:23:22.672Z,11.90
2019-03-31T23:25:52.082Z,8.20
2019-03-31T23:28:21.068Z,10.37
2019-03-31T23:30:50.057Z,12.60
2019-03-31T23:33:19.171Z,12.80
2019-03-31T23:35:48.540Z,6.30
2019-03-31T23:38:17.546Z,5.80
2019-03-31T23:40:47.268Z,8.83
2019-03-31T23:43:16.665Z,14.57
2019-03-31T23:45:45.726Z,12.63
2019-03-31T23:48:15.273Z,5.10
2019-03-31T23:50:44.244Z,10.00
2019-03-31T23:53:13.318Z,9.60
2019-03-31T23:55:43.134Z,8.87
2019-03-31T23:58:12.633Z,9.00
